sensor_id;sensor_type;location;lat;lon;timestamp;temperature;humidity
48994;DHT22;34804;49.214;12.276;2023-02-05T00:01:44;-3272.80;91.10
48994;DHT22;34804;49.214;12.276;2023-02-05T00:04:11;-3272.80;91.60
48994;DHT22;34804;49.214;12.276;2023-02-05T00:06:38;-3272.80;91.30
48994;DHT22;34804;49.214;12.276;2023-02-05T00:09:05;-3272.80;91.30
48994;DHT22;34804;49.214;12.276;2023-02-05T00:11:31;-3272.80;91.50
48994;DHT22;34804;49.214;12.276;2023-02-05T00:13:58;-3272.80;91.70
48994;DHT22;34804;49.214;12.276;2023-02-05T00:16:25;-3272.80;91.30
48994;DHT22;34804;49.214;12.276;2023-02-05T00:18:52;-3272.80;91.30
48994;DHT22;34804;49.214;12.276;2023-02-05T00:21:21;-3272.80;91.10
48994;DHT22;34804;49.214;12.276;2023-02-05T00:23:48;-3272.80;91.30
48994;DHT22;34804;49.214;12.276;2023-02-05T00:26:15;-3272.80;91.10
48994;DHT22;34804;49.214;12.276;2023-02-05T00:28:42;-3272.80;91.10
48994;DHT22;34804;49.214;12.276;2023-02-05T00:31:13;-3272.80;90.90
48994;DHT22;34804;49.214;12.276;2023-02-05T00:33:40;-3272.70;90.70
48994;DHT22;34804;49.214;12.276;2023-02-05T00:36:07;-3272.70;90.80
48994;DHT22;34804;49.214;12.276;2023-02-05T00:38:36;-3272.70;90.70
48994;DHT22;34804;49.214;12.276;2023-02-05T00:41:03;-3272.70;90.80
48994;DHT22;34804;49.214;12.276;2023-02-05T00:43:30;-3272.60;90.60
48994;DHT22;34804;49.214;12.276;2023-02-05T00:45:57;-3272.60;90.60
48994;DHT22;34804;49.214;12.276;2023-02-05T00:48:24;-3272.50;90.40
48994;DHT22;34804;49.214;12.276;2023-02-05T00:50:51;-3272.60;90.70
48994;DHT22;34804;49.214;12.276;2023-02-05T00:53:19;-3272.60;91.00
48994;DHT22;34804;49.214;12.276;2023-02-05T00:55:46;-3272.60;91.10
48994;DHT22;34804;49.214;12.276;2023-02-05T00:58:13;-3272.60;90.50
48994;DHT22;34804;49.214;12.276;2023-02-05T01:00:40;-3272.50;90.60
48994;DHT22;34804;49.214;12.276;2023-02-05T01:03:07;-3272.50;90.60
48994;DHT22;34804;49.214;12.276;2023-02-05T01:05:35;-3272.50;90.70
48994;DHT22;34804;49.214;12.276;2023-02-05T01:08:05;-3272.50;90.90
48994;DHT22;34804;49.214;12.276;2023-02-05T01:10:33;-3272.50;91.20
48994;DHT22;34804;49.214;12.276;2023-02-05T01:13:00;-3272.50;91.20
48994;DHT22;34804;49.214;12.276;2023-02-05T01:15:26;-3272.50;91.10
48994;DHT22;34804;49.214;12.276;2023-02-05T01:17:53;-3272.50;91.00
48994;DHT22;34804;49.214;12.276;2023-02-05T01:20:20;-3272.50;90.80
48994;DHT22;34804;49.214;12.276;2023-02-05T01:22:47;-3272.40;90.80
48994;DHT22;34804;49.214;12.276;2023-02-05T01:25:16;-3272.40;91.00
48994;DHT22;34804;49.214;12.276;2023-02-05T01:27:43;-3272.40;91.20
48994;DHT22;34804;49.214;12.276;2023-02-05T01:30:10;-3272.30;91.10
48994;DHT22;34804;49.214;12.276;2023-02-05T01:32:37;-3272.30;91.10
48994;DHT22;34804;49.214;12.276;2023-02-05T01:35:04;-3272.30;91.00
48994;DHT22;34804;49.214;12.276;2023-02-05T01:37:31;-3272.30;91.10
48994;DHT22;34804;49.214;12.276;2023-02-05T01:39:58;-3272.30;91.20
48994;DHT22;34804;49.214;12.276;2023-02-05T01:42:28;-3272.30;91.10
48994;DHT22;34804;49.214;12.276;2023-02-05T01:47:50;-3272.20;90.90
48994;DHT22;34804;49.214;12.276;2023-02-05T01:50:24;-3272.20;90.60
48994;DHT22;34804;49.214;12.276;2023-02-05T01:52:53;-3272.10;90.70
48994;DHT22;34804;49.214;12.276;2023-02-05T01:55:20;-3272.20;90.70
48994;DHT22;34804;49.214;12.276;2023-02-05T01:57:48;-3272.10;90.40
48994;DHT22;34804;49.214;12.276;2023-02-05T02:00:16;-3272.10;90.60
48994;DHT22;34804;49.214;12.276;2023-02-05T02:02:43;-3272.10;90.70
48994;DHT22;34804;49.214;12.276;2023-02-05T02:05:15;-3272.10;90.50
48994;DHT22;34804;49.214;12.276;2023-02-05T02:07:42;-3272.00;90.60
48994;DHT22;34804;49.214;12.276;2023-02-05T02:10:12;-3272.00;90.80
48994;DHT22;34804;49.214;12.276;2023-02-05T02:12:42;-3271.90;90.50
48994;DHT22;34804;49.214;12.276;2023-02-05T02:15:22;-3271.90;90.40
48994;DHT22;34804;49.214;12.276;2023-02-05T02:18:00;-3271.90;90.40
48994;DHT22;34804;49.214;12.276;2023-02-05T02:21:03;-3271.90;90.30
48994;DHT22;34804;49.214;12.276;2023-02-05T02:26:57;-3271.90;90.40
48994;DHT22;34804;49.214;12.276;2023-02-05T02:29:40;-3271.80;90.40
48994;DHT22;34804;49.214;12.276;2023-02-05T02:32:23;-3271.80;90.30
48994;DHT22;34804;49.214;12.276;2023-02-05T02:35:00;-3271.80;90.20
48994;DHT22;34804;49.214;12.276;2023-02-05T02:37:45;-3271.90;90.30
48994;DHT22;34804;49.214;12.276;2023-02-05T02:40:22;-3271.80;90.20
48994;DHT22;34804;49.214;12.276;2023-02-05T02:43:05;-3271.80;90.10
48994;DHT22;34804;49.214;12.276;2023-02-05T02:45:37;-3271.70;89.90
48994;DHT22;34804;49.214;12.276;2023-02-05T02:48:07;-3271.70;90.10
48994;DHT22;34804;49.214;12.276;2023-02-05T02:50:36;-3271.70;90.30
48994;DHT22;34804;49.214;12.276;2023-02-05T02:53:16;-3271.70;90.10
48994;DHT22;34804;49.214;12.276;2023-02-05T02:55:45;-3271.80;90.30
48994;DHT22;34804;49.214;12.276;2023-02-05T02:58:21;-3271.80;90.30
48994;DHT22;34804;49.214;12.276;2023-02-05T03:00:49;-3271.80;90.20
48994;DHT22;34804;49.214;12.276;2023-02-05T03:03:19;-3271.80;90.20
48994;DHT22;34804;49.214;12.276;2023-02-05T03:05:48;-3271.70;90.20
48994;DHT22;34804;49.214;12.276;2023-02-05T03:08:23;-3271.70;90.20
48994;DHT22;34804;49.214;12.276;2023-02-05T03:11:11;-3271.70;90.10
48994;DHT22;34804;49.214;12.276;2023-02-05T03:13:39;-3271.70;90.00
48994;DHT22;34804;49.214;12.276;2023-02-05T03:16:06;-3271.70;90.20
48994;DHT22;34804;49.214;12.276;2023-02-05T03:18:34;-3271.70;89.90
48994;DHT22;34804;49.214;12.276;2023-02-05T03:21:05;-3271.70;89.90
48994;DHT22;34804;49.214;12.276;2023-02-05T03:23:34;-3271.70;89.90
48994;DHT22;34804;49.214;12.276;2023-02-05T03:26:01;-3271.60;90.10
48994;DHT22;34804;49.214;12.276;2023-02-05T03:28:28;-3271.60;90.40
48994;DHT22;34804;49.214;12.276;2023-02-05T03:42:30;-3271.40;90.10
48994;DHT22;34804;49.214;12.276;2023-02-05T03:45:18;-3271.40;90.40
48994;DHT22;34804;49.214;12.276;2023-02-05T03:48:26;-3271.50;90.30
48994;DHT22;34804;49.214;12.276;2023-02-05T03:53:40;-3271.30;90.10
48994;DHT22;34804;49.214;12.276;2023-02-05T03:56:21;-3271.30;89.90
48994;DHT22;34804;49.214;12.276;2023-02-05T03:58:52;-3271.30;90.20
48994;DHT22;34804;49.214;12.276;2023-02-05T04:01:20;-3271.40;90.10
48994;DHT22;34804;49.214;12.276;2023-02-05T04:03:47;-3271.40;89.50
48994;DHT22;34804;49.214;12.276;2023-02-05T04:06:14;-3271.30;89.50
48994;DHT22;34804;49.214;12.276;2023-02-05T04:08:41;-3271.30;89.60
48994;DHT22;34804;49.214;12.276;2023-02-05T04:11:11;-3271.20;89.80
48994;DHT22;34804;49.214;12.276;2023-02-05T04:13:38;-3271.20;90.20
48994;DHT22;34804;49.214;12.276;2023-02-05T04:16:04;-3271.30;90.30
48994;DHT22;34804;49.214;12.276;2023-02-05T04:18:31;-3271.40;90.30
48994;DHT22;34804;49.214;12.276;2023-02-05T04:20:58;-3271.40;90.10
48994;DHT22;34804;49.214;12.276;2023-02-05T04:23:26;-3271.40;90.00
48994;DHT22;34804;49.214;12.276;2023-02-05T04:25:53;-3271.40;90.20
48994;DHT22;34804;49.214;12.276;2023-02-05T04:28:20;-3271.40;90.50
48994;DHT22;34804;49.214;12.276;2023-02-05T04:30:47;-3271.50;90.60
48994;DHT22;34804;49.214;12.276;2023-02-05T04:33:14;-3271.50;90.60
48994;DHT22;34804;49.214;12.276;2023-02-05T04:35:41;-3271.60;90.60
48994;DHT22;34804;49.214;12.276;2023-02-05T04:38:08;-3271.70;90.70
48994;DHT22;34804;49.214;12.276;2023-02-05T04:40:34;-3271.70;90.80
48994;DHT22;34804;49.214;12.276;2023-02-05T04:43:01;-3271.80;90.80
48994;DHT22;34804;49.214;12.276;2023-02-05T04:45:28;-3271.80;90.60
48994;DHT22;34804;49.214;12.276;2023-02-05T04:47:58;-3271.80;90.70
48994;DHT22;34804;49.214;12.276;2023-02-05T04:50:25;-3271.90;90.80
48994;DHT22;34804;49.214;12.276;2023-02-05T04:52:52;-3272.00;90.80
48994;DHT22;34804;49.214;12.276;2023-02-05T04:55:22;-3271.90;90.50
48994;DHT22;34804;49.214;12.276;2023-02-05T04:57:49;-3271.90;90.10
48994;DHT22;34804;49.214;12.276;2023-02-05T05:00:18;-3271.90;90.00
48994;DHT22;34804;49.214;12.276;2023-02-05T05:02:45;-3271.80;90.10
48994;DHT22;34804;49.214;12.276;2023-02-05T05:05:12;-3271.80;90.40
48994;DHT22;34804;49.214;12.276;2023-02-05T05:07:38;-3271.90;90.70
48994;DHT22;34804;49.214;12.276;2023-02-05T05:10:06;-3272.00;90.60
48994;DHT22;34804;49.214;12.276;2023-02-05T05:12:37;-3272.00;90.30
48994;DHT22;34804;49.214;12.276;2023-02-05T05:15:05;-3272.00;89.70
48994;DHT22;34804;49.214;12.276;2023-02-05T05:17:33;-3272.00;89.50
48994;DHT22;34804;49.214;12.276;2023-02-05T05:20:00;-3272.00;89.70
48994;DHT22;34804;49.214;12.276;2023-02-05T05:22:28;-3272.00;89.70
48994;DHT22;34804;49.214;12.276;2023-02-05T05:24:55;-3271.90;89.80
48994;DHT22;34804;49.214;12.276;2023-02-05T05:27:22;-3272.00;89.90
48994;DHT22;34804;49.214;12.276;2023-02-05T05:29:49;-3272.00;89.90
48994;DHT22;34804;49.214;12.276;2023-02-05T05:32:16;-3271.90;90.00
48994;DHT22;34804;49.214;12.276;2023-02-05T05:34:43;-3272.00;90.10
48994;DHT22;34804;49.214;12.276;2023-02-05T05:37:10;-3272.00;90.10
48994;DHT22;34804;49.214;12.276;2023-02-05T05:39:37;-3272.00;90.10
48994;DHT22;34804;49.214;12.276;2023-02-05T05:42:22;-3272.10;90.30
48994;DHT22;34804;49.214;12.276;2023-02-05T05:45:08;-3272.10;89.90
48994;DHT22;34804;49.214;12.276;2023-02-05T05:47:34;-3272.00;89.70
48994;DHT22;34804;49.214;12.276;2023-02-05T05:50:01;-3271.90;89.70
48994;DHT22;34804;49.214;12.276;2023-02-05T05:52:29;-3271.90;89.90
48994;DHT22;34804;49.214;12.276;2023-02-05T05:54:58;-3272.00;89.70
48994;DHT22;34804;49.214;12.276;2023-02-05T05:57:25;-3272.00;89.50
48994;DHT22;34804;49.214;12.276;2023-02-05T05:59:51;-3271.90;89.00
48994;DHT22;34804;49.214;12.276;2023-02-05T06:02:18;-3271.80;88.90
48994;DHT22;34804;49.214;12.276;2023-02-05T06:04:45;-3271.70;89.20
48994;DHT22;34804;49.214;12.276;2023-02-05T06:07:12;-3271.60;89.50
48994;DHT22;34804;49.214;12.276;2023-02-05T06:09:39;-3271.60;89.70
48994;DHT22;34804;49.214;12.276;2023-02-05T06:12:06;-3271.50;89.80
48994;DHT22;34804;49.214;12.276;2023-02-05T06:14:32;-3271.50;90.10
48994;DHT22;34804;49.214;12.276;2023-02-05T06:16:59;-3271.60;90.10
48994;DHT22;34804;49.214;12.276;2023-02-05T06:19:26;-3271.60;90.10
48994;DHT22;34804;49.214;12.276;2023-02-05T06:21:53;-3271.70;90.20
48994;DHT22;34804;49.214;12.276;2023-02-05T06:24:20;-3271.70;90.00
48994;DHT22;34804;49.214;12.276;2023-02-05T06:26:46;-3271.70;89.30
48994;DHT22;34804;49.214;12.276;2023-02-05T06:29:13;-3271.70;89.40
48994;DHT22;34804;49.214;12.276;2023-02-05T06:31:40;-3271.70;89.70
48994;DHT22;34804;49.214;12.276;2023-02-05T06:34:07;-3271.70;89.70
48994;DHT22;34804;49.214;12.276;2023-02-05T06:36:33;-3271.80;89.90
48994;DHT22;34804;49.214;12.276;2023-02-05T06:39:00;-3271.80;90.10
48994;DHT22;34804;49.214;12.276;2023-02-05T06:41:27;-3271.90;90.30
48994;DHT22;34804;49.214;12.276;2023-02-05T06:43:54;-3271.90;90.40
48994;DHT22;34804;49.214;12.276;2023-02-05T06:46:21;-3272.00;90.20
48994;DHT22;34804;49.214;12.276;2023-02-05T06:48:47;-3271.90;90.10
48994;DHT22;34804;49.214;12.276;2023-02-05T06:51:14;-3272.00;90.20
48994;DHT22;34804;49.214;12.276;2023-02-05T06:53:41;-3272.10;90.20
48994;DHT22;34804;49.214;12.276;2023-02-05T06:56:09;-3272.10;90.10
48994;DHT22;34804;49.214;12.276;2023-02-05T06:58:35;-3272.10;90.10
48994;DHT22;34804;49.214;12.276;2023-02-05T07:01:02;-3272.10;90.00
48994;DHT22;34804;49.214;12.276;2023-02-05T07:03:29;-3272.20;90.10
48994;DHT22;34804;49.214;12.276;2023-02-05T07:06:03;-3272.20;90.20
48994;DHT22;34804;49.214;12.276;2023-02-05T07:08:30;-3272.30;89.90
48994;DHT22;34804;49.214;12.276;2023-02-05T07:10:57;-3272.20;89.80
48994;DHT22;34804;49.214;12.276;2023-02-05T07:13:25;-3272.30;89.80
48994;DHT22;34804;49.214;12.276;2023-02-05T07:15:52;-3272.20;89.30
48994;DHT22;34804;49.214;12.276;2023-02-05T07:18:19;-3272.20;89.10
48994;DHT22;34804;49.214;12.276;2023-02-05T07:20:45;-3272.20;89.20
48994;DHT22;34804;49.214;12.276;2023-02-05T07:23:13;-3272.20;89.20
48994;DHT22;34804;49.214;12.276;2023-02-05T07:25:40;-3272.20;89.30
48994;DHT22;34804;49.214;12.276;2023-02-05T07:28:07;-3272.20;89.30
48994;DHT22;34804;49.214;12.276;2023-02-05T07:30:34;-3272.20;89.40
48994;DHT22;34804;49.214;12.276;2023-02-05T07:33:01;-3272.30;89.40
48994;DHT22;34804;49.214;12.276;2023-02-05T07:35:30;-3272.20;89.10
48994;DHT22;34804;49.214;12.276;2023-02-05T07:37:57;-3272.30;89.30
48994;DHT22;34804;49.214;12.276;2023-02-05T07:40:25;-3272.30;89.30
48994;DHT22;34804;49.214;12.276;2023-02-05T07:42:51;-3272.30;89.10
48994;DHT22;34804;49.214;12.276;2023-02-05T07:45:18;-3272.30;89.20
48994;DHT22;34804;49.214;12.276;2023-02-05T07:47:45;-3272.30;89.10
48994;DHT22;34804;49.214;12.276;2023-02-05T07:50:16;-3272.30;89.20
48994;DHT22;34804;49.214;12.276;2023-02-05T07:52:43;-3272.30;89.30
48994;DHT22;34804;49.214;12.276;2023-02-05T07:55:09;-3272.40;89.60
48994;DHT22;34804;49.214;12.276;2023-02-05T07:57:36;-3272.50;89.60
48994;DHT22;34804;49.214;12.276;2023-02-05T08:00:03;-3272.60;89.50
48994;DHT22;34804;49.214;12.276;2023-02-05T08:02:30;-3272.70;89.60
48994;DHT22;34804;49.214;12.276;2023-02-05T08:04:57;-3272.70;89.80
48994;DHT22;34804;49.214;12.276;2023-02-05T08:07:24;-3272.80;89.40
48994;DHT22;34804;49.214;12.276;2023-02-05T08:09:51;-3272.90;89.80
48994;DHT22;34804;49.214;12.276;2023-02-05T08:12:17;-3273.10;89.50
48994;DHT22;34804;49.214;12.276;2023-02-05T08:14:44;-3273.20;89.10
48994;DHT22;34804;49.214;12.276;2023-02-05T08:17:11;-3273.30;89.10
48994;DHT22;34804;49.214;12.276;2023-02-05T08:19:38;-3273.40;89.20
48994;DHT22;34804;49.214;12.276;2023-02-05T08:22:05;-3273.40;88.80
48994;DHT22;34804;49.214;12.276;2023-02-05T08:24:32;-3273.50;88.70
48994;DHT22;34804;49.214;12.276;2023-02-05T08:26:59;-3273.50;88.70
48994;DHT22;34804;49.214;12.276;2023-02-05T08:29:26;-3273.70;88.90
48994;DHT22;34804;49.214;12.276;2023-02-05T08:31:53;-3273.80;88.80
48994;DHT22;34804;49.214;12.276;2023-02-05T08:34:20;-3273.90;88.80
48994;DHT22;34804;49.214;12.276;2023-02-05T08:36:46;-3274.10;88.60
48994;DHT22;34804;49.214;12.276;2023-02-05T08:39:13;-3274.20;88.10
48994;DHT22;34804;49.214;12.276;2023-02-05T08:41:40;-3274.30;88.20
48994;DHT22;34804;49.214;12.276;2023-02-05T08:44:07;-3274.40;87.70
48994;DHT22;34804;49.214;12.276;2023-02-05T08:46:34;-3274.40;86.90
48994;DHT22;34804;49.214;12.276;2023-02-05T08:49:15;-3274.20;87.00
48994;DHT22;34804;49.214;12.276;2023-02-05T08:51:42;-3274.20;87.60
48994;DHT22;34804;49.214;12.276;2023-02-05T08:54:09;-3274.30;87.60
48994;DHT22;34804;49.214;12.276;2023-02-05T08:56:39;-3274.40;87.40
48994;DHT22;34804;49.214;12.276;2023-02-05T08:59:06;-3274.40;87.40
48994;DHT22;34804;49.214;12.276;2023-02-05T09:01:35;-3274.60;87.30
48994;DHT22;34804;49.214;12.276;2023-02-05T09:04:03;-3274.80;87.30
48994;DHT22;34804;49.214;12.276;2023-02-05T09:06:30;-3274.80;87.10
48994;DHT22;34804;49.214;12.276;2023-02-05T09:08:57;-3274.90;86.90
48994;DHT22;34804;49.214;12.276;2023-02-05T09:11:27;-3274.90;86.10
48994;DHT22;34804;49.214;12.276;2023-02-05T09:13:56;-3275.00;86.70
48994;DHT22;34804;49.214;12.276;2023-02-05T09:16:24;-3275.20;86.50
48994;DHT22;34804;49.214;12.276;2023-02-05T09:18:55;-3275.30;85.70
48994;DHT22;34804;49.214;12.276;2023-02-05T09:21:23;-3275.40;86.00
48994;DHT22;34804;49.214;12.276;2023-02-05T09:23:51;-3275.80;87.00
48994;DHT22;34804;49.214;12.276;2023-02-05T09:26:18;-3275.90;85.80
48994;DHT22;34804;49.214;12.276;2023-02-05T09:28:44;-3276.00;85.10
48994;DHT22;34804;49.214;12.276;2023-02-05T09:31:14;-3276.00;85.60
48994;DHT22;34804;49.214;12.276;2023-02-05T09:33:42;-3276.20;85.80
48994;DHT22;34804;49.214;12.276;2023-02-05T09:36:16;-3276.10;84.70
48994;DHT22;34804;49.214;12.276;2023-02-05T09:38:44;-3276.20;86.20
48994;DHT22;34804;49.214;12.276;2023-02-05T09:43:57;-3276.70;84.80
48994;DHT22;34804;49.214;12.276;2023-02-05T09:49:29;-3276.70;83.50
48994;DHT22;34804;49.214;12.276;2023-02-05T09:52:06;0.00;83.60
48994;DHT22;34804;49.214;12.276;2023-02-05T09:54:39;0.00;83.70
48994;DHT22;34804;49.214;12.276;2023-02-05T09:57:12;0.20;83.30
48994;DHT22;34804;49.214;12.276;2023-02-05T09:59:41;0.30;83.30
48994;DHT22;34804;49.214;12.276;2023-02-05T10:04:55;0.50;82.90
48994;DHT22;34804;49.214;12.276;2023-02-05T10:07:49;0.50;82.30
48994;DHT22;34804;49.214;12.276;2023-02-05T10:13:02;0.80;83.00
48994;DHT22;34804;49.214;12.276;2023-02-05T10:16:15;0.80;80.80
48994;DHT22;34804;49.214;12.276;2023-02-05T10:25:00;1.30;80.00
48994;DHT22;34804;49.214;12.276;2023-02-05T10:30:41;1.30;79.20
48994;DHT22;34804;49.214;12.276;2023-02-05T10:33:34;1.40;78.50
48994;DHT22;34804;49.214;12.276;2023-02-05T10:36:07;1.50;77.80
48994;DHT22;34804;49.214;12.276;2023-02-05T10:38:40;1.30;77.90
48994;DHT22;34804;49.214;12.276;2023-02-05T10:41:37;1.40;78.20
48994;DHT22;34804;49.214;12.276;2023-02-05T10:47:02;1.30;77.50
48994;DHT22;34804;49.214;12.276;2023-02-05T10:49:47;1.20;78.10
48994;DHT22;34804;49.214;12.276;2023-02-05T10:52:16;1.10;78.90
48994;DHT22;34804;49.214;12.276;2023-02-05T10:54:44;1.20;79.10
48994;DHT22;34804;49.214;12.276;2023-02-05T10:57:14;1.30;78.60
48994;DHT22;34804;49.214;12.276;2023-02-05T10:59:57;1.40;77.80
48994;DHT22;34804;49.214;12.276;2023-02-05T11:02:31;1.40;77.90
48994;DHT22;34804;49.214;12.276;2023-02-05T11:05:03;1.40;77.10
48994;DHT22;34804;49.214;12.276;2023-02-05T11:07:35;1.60;77.70
48994;DHT22;34804;49.214;12.276;2023-02-05T11:10:19;1.60;77.50
48994;DHT22;34804;49.214;12.276;2023-02-05T11:12:52;1.80;77.90
48994;DHT22;34804;49.214;12.276;2023-02-05T11:15:25;2.00;77.20
48994;DHT22;34804;49.214;12.276;2023-02-05T11:17:56;2.00;76.80
48994;DHT22;34804;49.214;12.276;2023-02-05T11:20:27;2.10;77.10
48994;DHT22;34804;49.214;12.276;2023-02-05T11:23:17;2.10;75.70
48994;DHT22;34804;49.214;12.276;2023-02-05T11:25:59;2.10;76.00
48994;DHT22;34804;49.214;12.276;2023-02-05T11:28:31;2.20;75.20
48994;DHT22;34804;49.214;12.276;2023-02-05T11:31:24;2.20;75.30
48994;DHT22;34804;49.214;12.276;2023-02-05T11:36:36;2.40;73.50
48994;DHT22;34804;49.214;12.276;2023-02-05T11:39:05;2.60;73.60
48994;DHT22;34804;49.214;12.276;2023-02-05T11:41:37;2.60;73.80
48994;DHT22;34804;49.214;12.276;2023-02-05T11:44:28;2.60;72.10
48994;DHT22;34804;49.214;12.276;2023-02-05T11:46:59;2.80;72.50
48994;DHT22;34804;49.214;12.276;2023-02-05T11:49:34;3.00;71.20
48994;DHT22;34804;49.214;12.276;2023-02-05T11:52:08;3.10;69.80
48994;DHT22;34804;49.214;12.276;2023-02-05T11:54:37;3.30;70.30
48994;DHT22;34804;49.214;12.276;2023-02-05T11:59:59;3.40;71.20
48994;DHT22;34804;49.214;12.276;2023-02-05T12:16:47;3.90;67.30
48994;DHT22;34804;49.214;12.276;2023-02-05T12:19:24;3.90;64.20
48994;DHT22;34804;49.214;12.276;2023-02-05T12:22:07;4.00;65.80
48994;DHT22;34804;49.214;12.276;2023-02-05T12:25:14;3.80;64.70
48994;DHT22;34804;49.214;12.276;2023-02-05T12:28:08;4.00;64.50
48994;DHT22;34804;49.214;12.276;2023-02-05T12:41:52;4.10;64.80
48994;DHT22;34804;49.214;12.276;2023-02-05T12:44:32;4.00;63.30
48994;DHT22;34804;49.214;12.276;2023-02-05T12:47:41;4.00;62.60
48994;DHT22;34804;49.214;12.276;2023-02-05T12:50:33;4.00;62.70
48994;DHT22;34804;49.214;12.276;2023-02-05T12:58:30;3.80;64.50
48994;DHT22;34804;49.214;12.276;2023-02-05T13:01:05;3.90;65.40
48994;DHT22;34804;49.214;12.276;2023-02-05T13:03:39;4.00;68.50
48994;DHT22;34804;49.214;12.276;2023-02-05T13:06:29;4.20;67.80
48994;DHT22;34804;49.214;12.276;2023-02-05T13:09:20;4.30;67.10
48994;DHT22;34804;49.214;12.276;2023-02-05T13:12:01;4.30;66.30
48994;DHT22;34804;49.214;12.276;2023-02-05T13:15:20;4.20;65.00
48994;DHT22;34804;49.214;12.276;2023-02-05T13:17:30;4.00;64.10
48994;DHT22;34804;49.214;12.276;2023-02-05T13:20:04;3.90;65.80
48994;DHT22;34804;49.214;12.276;2023-02-05T13:22:42;3.70;65.80
48994;DHT22;34804;49.214;12.276;2023-02-05T13:25:35;3.90;65.50
48994;DHT22;34804;49.214;12.276;2023-02-05T13:33:55;4.90;63.80
48994;DHT22;34804;49.214;12.276;2023-02-05T13:42:25;5.40;61.60
48994;DHT22;34804;49.214;12.276;2023-02-05T13:53:26;5.30;60.40
48994;DHT22;34804;49.214;12.276;2023-02-05T13:58:49;4.70;64.00
48994;DHT22;34804;49.214;12.276;2023-02-05T14:01:24;4.70;63.90
48994;DHT22;34804;49.214;12.276;2023-02-05T14:03:56;4.70;63.50
48994;DHT22;34804;49.214;12.276;2023-02-05T14:06:37;4.80;63.40
48994;DHT22;34804;49.214;12.276;2023-02-05T14:09:09;4.70;63.50
48994;DHT22;34804;49.214;12.276;2023-02-05T14:11:55;4.60;63.50
48994;DHT22;34804;49.214;12.276;2023-02-05T14:16:49;4.40;63.50
48994;DHT22;34804;49.214;12.276;2023-02-05T14:19:22;4.20;64.20
48994;DHT22;34804;49.214;12.276;2023-02-05T14:21:59;3.90;65.10
48994;DHT22;34804;49.214;12.276;2023-02-05T14:24:42;3.80;65.60
48994;DHT22;34804;49.214;12.276;2023-02-05T14:29:56;3.60;66.90
48994;DHT22;34804;49.214;12.276;2023-02-05T14:35:31;3.50;66.60
48994;DHT22;34804;49.214;12.276;2023-02-05T14:38:01;3.30;66.70
48994;DHT22;34804;49.214;12.276;2023-02-05T14:40:35;3.30;66.20
48994;DHT22;34804;49.214;12.276;2023-02-05T14:43:16;3.20;66.30
48994;DHT22;34804;49.214;12.276;2023-02-05T14:45:50;3.20;67.00
48994;DHT22;34804;49.214;12.276;2023-02-05T14:48:26;3.10;67.90
48994;DHT22;34804;49.214;12.276;2023-02-05T14:51:28;3.20;69.50
48994;DHT22;34804;49.214;12.276;2023-02-05T14:54:02;3.20;69.00
48994;DHT22;34804;49.214;12.276;2023-02-05T14:56:39;3.20;68.40
48994;DHT22;34804;49.214;12.276;2023-02-05T14:59:20;3.20;68.20
48994;DHT22;34804;49.214;12.276;2023-02-05T15:01:50;3.20;69.00
48994;DHT22;34804;49.214;12.276;2023-02-05T15:04:38;3.20;68.10
48994;DHT22;34804;49.214;12.276;2023-02-05T15:07:21;3.10;69.00
48994;DHT22;34804;49.214;12.276;2023-02-05T15:09:56;3.10;69.20
48994;DHT22;34804;49.214;12.276;2023-02-05T15:15:26;3.00;67.40
48994;DHT22;34804;49.214;12.276;2023-02-05T15:20:45;2.90;69.60
48994;DHT22;34804;49.214;12.276;2023-02-05T15:29:08;2.80;69.40
48994;DHT22;34804;49.214;12.276;2023-02-05T15:31:49;2.70;70.00
48994;DHT22;34804;49.214;12.276;2023-02-05T15:37:13;2.50;69.90
48994;DHT22;34804;49.214;12.276;2023-02-05T15:40:07;2.30;70.10
48994;DHT22;34804;49.214;12.276;2023-02-05T15:42:38;2.10;70.10
48994;DHT22;34804;49.214;12.276;2023-02-05T15:45:31;2.10;70.50
48994;DHT22;34804;49.214;12.276;2023-02-05T15:50:42;1.80;71.70
48994;DHT22;34804;49.214;12.276;2023-02-05T15:53:44;1.80;72.60
48994;DHT22;34804;49.214;12.276;2023-02-05T15:56:15;1.60;74.50
48994;DHT22;34804;49.214;12.276;2023-02-05T15:59:03;1.50;74.70
48994;DHT22;34804;49.214;12.276;2023-02-05T16:01:42;1.40;74.40
48994;DHT22;34804;49.214;12.276;2023-02-05T16:06:49;1.30;75.10
48994;DHT22;34804;49.214;12.276;2023-02-05T16:09:18;1.30;75.50
48994;DHT22;34804;49.214;12.276;2023-02-05T16:11:47;1.30;75.50
48994;DHT22;34804;49.214;12.276;2023-02-05T16:14:17;1.20;75.70
48994;DHT22;34804;49.214;12.276;2023-02-05T16:19:32;1.20;75.50
48994;DHT22;34804;49.214;12.276;2023-02-05T16:24:54;1.10;76.10
48994;DHT22;34804;49.214;12.276;2023-02-05T16:27:32;1.00;76.60
48994;DHT22;34804;49.214;12.276;2023-02-05T16:30:05;0.80;77.00
48994;DHT22;34804;49.214;12.276;2023-02-05T16:32:40;0.80;77.50
48994;DHT22;34804;49.214;12.276;2023-02-05T16:35:37;0.70;77.80
48994;DHT22;34804;49.214;12.276;2023-02-05T16:38:16;0.60;77.60
48994;DHT22;34804;49.214;12.276;2023-02-05T16:40:47;0.60;77.80
48994;DHT22;34804;49.214;12.276;2023-02-05T16:51:32;0.30;77.60
48994;DHT22;34804;49.214;12.276;2023-02-05T16:57:14;0.10;78.20
48994;DHT22;34804;49.214;12.276;2023-02-05T16:59:50;0.00;78.70
48994;DHT22;34804;49.214;12.276;2023-02-05T17:02:26;0.00;78.60
48994;DHT22;34804;49.214;12.276;2023-02-05T17:04:56;-3276.70;78.90
48994;DHT22;34804;49.214;12.276;2023-02-05T17:07:24;-3276.60;79.30
48994;DHT22;34804;49.214;12.276;2023-02-05T17:09:51;-3276.50;79.30
48994;DHT22;34804;49.214;12.276;2023-02-05T17:14:57;-3276.30;80.90
48994;DHT22;34804;49.214;12.276;2023-02-05T17:17:26;-3276.10;82.80
48994;DHT22;34804;49.214;12.276;2023-02-05T17:23:12;-3275.90;84.00
48994;DHT22;34804;49.214;12.276;2023-02-05T17:25:52;-3275.80;84.20
48994;DHT22;34804;49.214;12.276;2023-02-05T17:28:26;-3275.90;84.20
48994;DHT22;34804;49.214;12.276;2023-02-05T17:30:54;-3275.80;84.00
48994;DHT22;34804;49.214;12.276;2023-02-05T17:33:26;-3275.80;84.20
48994;DHT22;34804;49.214;12.276;2023-02-05T17:35:53;-3275.80;84.30
48994;DHT22;34804;49.214;12.276;2023-02-05T17:38:20;-3275.70;84.40
48994;DHT22;34804;49.214;12.276;2023-02-05T17:40:49;-3275.60;85.00
48994;DHT22;34804;49.214;12.276;2023-02-05T17:43:36;-3275.60;85.40
48994;DHT22;34804;49.214;12.276;2023-02-05T17:46:10;-3275.50;85.30
48994;DHT22;34804;49.214;12.276;2023-02-05T17:48:37;-3275.50;85.50
48994;DHT22;34804;49.214;12.276;2023-02-05T17:51:05;-3275.40;85.80
48994;DHT22;34804;49.214;12.276;2023-02-05T17:53:32;-3275.40;86.00
48994;DHT22;34804;49.214;12.276;2023-02-05T17:56:00;-3275.40;86.10